createdAt,value
2022-09-28T00:00:51.829Z,1.02
2022-09-28T00:02:58.558Z,1.73
2022-09-28T00:05:03.401Z,1.27
2022-09-28T00:07:08.401Z,1.48
2022-09-28T00:09:13.461Z,1.67
2022-09-28T00:11:18.937Z,1.55
2022-09-28T00:13:23.787Z,1.80
2022-09-28T00:15:28.536Z,1.33
2022-09-28T00:17:36.511Z,1.58
2022-09-28T00:19:43.174Z,1.55
2022-09-28T00:21:48.092Z,1.10
2022-09-28T00:24:08.177Z,1.30
2022-09-28T00:26:12.945Z,1.63
2022-09-28T00:28:17.656Z,1.30
2022-09-28T00:30:22.798Z,1.40
2022-09-28T00:32:28.157Z,1.20
2022-09-28T00:36:41.645Z,1.48
2022-09-28T00:38:46.479Z,1.30
2022-09-28T00:40:51.296Z,1.20
2022-09-28T00:42:56.640Z,1.55
2022-09-28T00:47:16.478Z,1.30
2022-09-28T00:49:25.706Z,1.30
2022-09-28T00:51:37.108Z,0.90
2022-09-28T00:53:46.223Z,1.17
2022-09-28T00:55:54.806Z,1.10
2022-09-28T00:58:03.019Z,1.10
2022-09-28T01:00:10.157Z,1.13
2022-09-28T01:02:15.018Z,1.20
2022-09-28T01:04:20.278Z,0.90
2022-09-28T01:08:37.130Z,0.95
2022-09-28T01:10:43.608Z,1.05
2022-09-28T01:12:48.343Z,1.08
2022-09-28T01:14:55.044Z,0.93
2022-09-28T01:17:08.446Z,0.93
2022-09-28T01:19:36.741Z,1.13
2022-09-28T01:21:53.171Z,0.82
2022-09-28T01:24:17.473Z,1.00
2022-09-28T01:26:48.670Z,1.42
2022-09-28T01:29:03.770Z,1.10
2022-09-28T01:31:15.118Z,1.00
2022-09-28T01:33:25.179Z,0.95
2022-09-28T01:35:35.541Z,0.90
2022-09-28T01:37:47.723Z,0.95
2022-09-28T01:39:55.115Z,0.80
2022-09-28T01:42:08.486Z,0.70
2022-09-28T01:44:18.078Z,0.80
2022-09-28T01:46:27.409Z,1.10
2022-09-28T01:48:38.143Z,0.70
2022-09-28T01:50:48.338Z,0.80
2022-09-28T01:52:57.262Z,0.98
2022-09-28T01:55:09.258Z,0.60
2022-09-28T01:57:21.799Z,0.88
2022-09-28T01:59:30.041Z,0.90
2022-09-28T02:01:42.151Z,0.73
2022-09-28T02:03:53.361Z,0.90
2022-09-28T02:06:01.645Z,0.73
2022-09-28T02:08:11.789Z,0.63
2022-09-28T02:10:21.477Z,0.70
2022-09-28T02:12:35.827Z,0.75
2022-09-28T02:14:44.093Z,0.93
2022-09-28T02:16:51.868Z,0.60
2022-09-28T02:19:03.446Z,1.00
2022-09-28T02:21:16.119Z,0.93
2022-09-28T02:23:25.013Z,0.75
2022-09-28T02:25:36.869Z,0.60
2022-09-28T02:27:50.272Z,1.08
2022-09-28T02:29:55.118Z,0.80
2022-09-28T02:31:59.957Z,0.80
2022-09-28T02:34:05.450Z,0.65
2022-09-28T02:36:10.939Z,0.90
2022-09-28T02:38:17.712Z,0.60
2022-09-28T02:40:28.118Z,1.30
2022-09-28T02:42:46.284Z,1.15
2022-09-28T02:45:07.806Z,0.88
2022-09-28T02:47:20.391Z,1.27
2022-09-28T02:49:34.504Z,0.90
2022-09-28T02:51:48.663Z,1.20
2022-09-28T02:54:19.979Z,0.80
2022-09-28T02:56:55.018Z,1.20
2022-09-28T02:59:12.945Z,1.00
2022-09-28T03:01:29.881Z,0.98
2022-09-28T03:03:44.314Z,0.82
2022-09-28T03:05:59.030Z,0.85
2022-09-28T03:08:07.034Z,0.60
2022-09-28T03:10:19.708Z,0.90
2022-09-28T03:12:29.384Z,1.08
2022-09-28T03:14:34.704Z,1.00
2022-09-28T03:16:46.219Z,0.82
2022-09-28T03:18:51.277Z,1.40
2022-09-28T03:20:56.369Z,1.27
2022-09-28T03:23:23.264Z,0.70
2022-09-28T03:25:26.276Z,1.00
2022-09-28T03:27:31.019Z,1.10
2022-09-28T03:29:36.258Z,0.90
2022-09-28T03:31:48.677Z,1.00
2022-09-28T03:33:54.325Z,0.90
2022-09-28T03:35:59.139Z,0.65
2022-09-28T03:38:04.321Z,1.33
2022-09-28T03:40:12.804Z,0.73
2022-09-28T03:42:17.595Z,0.55
2022-09-28T03:44:26.418Z,0.85
2022-09-28T03:46:31.278Z,1.05
2022-09-28T03:48:44.344Z,1.20
2022-09-28T03:50:49.538Z,0.63
2022-09-28T03:52:54.415Z,0.90
2022-09-28T03:54:59.946Z,0.80
2022-09-28T03:57:05.013Z,1.23
2022-09-28T03:59:10.171Z,1.50
2022-09-28T04:03:25.688Z,1.00
2022-09-28T04:07:38.283Z,0.90
2022-09-28T04:09:43.125Z,0.75
2022-09-28T04:12:03.306Z,0.70
2022-09-28T04:14:09.730Z,0.95
2022-09-28T04:16:15.857Z,1.23
2022-09-28T04:18:27.462Z,0.73
2022-09-28T04:20:51.272Z,1.17
2022-09-28T04:22:56.035Z,0.80
2022-09-28T04:25:00.841Z,1.20
2022-09-28T04:27:18.091Z,0.88
2022-09-28T04:29:23.743Z,1.17
2022-09-28T04:31:40.101Z,0.98
2022-09-28T04:33:44.969Z,1.08
2022-09-28T04:35:52.282Z,0.90
2022-09-28T04:37:57.255Z,0.90
2022-09-28T04:40:02.195Z,1.08
2022-09-28T04:42:08.998Z,1.00
2022-09-28T04:44:13.833Z,1.30
2022-09-28T04:46:18.729Z,1.20
2022-09-28T04:48:35.220Z,1.40
2022-09-28T04:51:06.852Z,1.35
2022-09-28T04:53:12.445Z,1.20
2022-09-28T04:55:18.472Z,1.30
2022-09-28T04:57:26.321Z,1.60
2022-09-28T04:59:32.563Z,2.30
2022-09-28T05:01:38.243Z,2.08
2022-09-28T05:03:43.014Z,2.25
2022-09-28T05:06:09.719Z,2.55
2022-09-28T05:08:19.479Z,2.20
2022-09-28T05:10:24.337Z,2.05
2022-09-28T05:12:31.371Z,2.20
2022-09-28T05:14:37.325Z,2.10
2022-09-28T05:16:43.156Z,2.20
2022-09-28T05:19:00.324Z,2.40
2022-09-28T05:21:12.915Z,2.72
2022-09-28T05:23:18.564Z,1.70
2022-09-28T05:25:24.151Z,1.60
2022-09-28T05:27:41.415Z,1.42
2022-09-28T05:30:00.369Z,1.50
2022-09-28T05:32:08.326Z,2.22
2022-09-28T05:34:17.189Z,4.88
2022-09-28T05:36:26.850Z,3.20
2022-09-28T05:38:32.356Z,2.22
2022-09-28T05:42:42.209Z,1.42
2022-09-28T05:44:47.051Z,1.40
2022-09-28T05:46:51.790Z,1.30
2022-09-28T05:48:57.013Z,1.52
2022-09-28T05:51:01.843Z,1.20
2022-09-28T05:53:10.999Z,1.30
2022-09-28T05:55:16.311Z,1.63
2022-09-28T05:57:21.678Z,1.30
2022-09-28T05:59:26.563Z,1.17
2022-09-28T06:01:31.374Z,1.38
2022-09-28T06:03:37.605Z,1.60
2022-09-28T06:05:43.020Z,1.35
2022-09-28T06:07:48.004Z,1.52
2022-09-28T06:09:55.818Z,1.83
2022-09-28T06:12:15.999Z,1.30
2022-09-28T06:14:23.689Z,1.80
2022-09-28T06:16:28.508Z,1.60
2022-09-28T06:18:33.534Z,1.85
2022-09-28T06:20:50.419Z,1.35
2022-09-28T06:22:57.768Z,1.50
2022-09-28T06:25:05.424Z,1.75
2022-09-28T06:27:10.256Z,1.20
2022-09-28T06:29:19.818Z,1.60
2022-09-28T06:31:26.288Z,1.65
2022-09-28T06:33:32.276Z,1.38
2022-09-28T06:35:38.697Z,1.30
2022-09-28T06:37:47.346Z,1.30
2022-09-28T06:39:52.266Z,1.20
2022-09-28T06:42:04.460Z,1.30
2022-09-28T06:44:29.187Z,1.13
2022-09-28T06:47:02.247Z,0.90
2022-09-28T06:49:33.039Z,0.90
2022-09-28T06:51:57.734Z,0.90
2022-09-28T06:54:25.653Z,1.00
2022-09-28T06:56:40.375Z,0.80
2022-09-28T06:58:47.772Z,1.20
2022-09-28T07:00:54.609Z,1.15
2022-09-28T07:03:00.043Z,1.48
2022-09-28T07:05:26.743Z,0.93
2022-09-28T07:07:55.242Z,1.02
2022-09-28T07:10:18.644Z,1.02
2022-09-28T07:12:42.110Z,1.35
2022-09-28T07:15:03.932Z,1.00
2022-09-28T07:17:14.187Z,1.35
2022-09-28T07:19:19.971Z,1.17
2022-09-28T07:21:29.518Z,1.25
2022-09-28T07:23:48.807Z,1.25
2022-09-28T07:26:08.599Z,1.23
2022-09-28T07:28:46.272Z,0.90
2022-09-28T07:31:11.978Z,0.80
2022-09-28T07:33:43.702Z,1.13
2022-09-28T07:36:03.313Z,0.95
2022-09-28T07:38:10.226Z,1.60
2022-09-28T07:40:27.911Z,1.50
2022-09-28T07:42:33.450Z,1.23
2022-09-28T07:44:41.083Z,1.00
2022-09-28T07:46:48.782Z,0.90
2022-09-28T07:49:08.391Z,0.90
2022-09-28T07:51:45.579Z,0.77
2022-09-28T07:54:17.913Z,1.10
2022-09-28T07:56:42.936Z,0.88
2022-09-28T07:58:54.971Z,1.05
2022-09-28T08:01:20.298Z,1.02
2022-09-28T08:03:28.186Z,0.80
2022-09-28T08:05:35.898Z,1.00
2022-09-28T08:07:40.984Z,0.90
2022-09-28T08:09:48.248Z,1.08
2022-09-28T08:12:19.777Z,1.40
2022-09-28T08:14:37.624Z,1.50
2022-09-28T08:17:09.334Z,1.52
2022-09-28T08:19:26.283Z,1.30
2022-09-28T08:21:43.600Z,1.23
2022-09-28T08:23:48.672Z,1.25
2022-09-28T08:25:55.325Z,1.23
2022-09-28T08:28:01.163Z,1.05
2022-09-28T08:30:10.240Z,1.27
2022-09-28T08:32:20.021Z,1.10
2022-09-28T08:34:46.181Z,1.20
2022-09-28T08:37:29.793Z,1.20
2022-09-28T08:39:46.533Z,1.20
2022-09-28T08:42:08.921Z,1.27
2022-09-28T08:44:46.327Z,0.98
2022-09-28T08:47:08.510Z,1.40
2022-09-28T08:49:26.570Z,1.38
2022-09-28T08:51:54.016Z,1.27
2022-09-28T08:54:12.156Z,1.23
2022-09-28T08:56:44.393Z,1.00
2022-09-28T08:58:58.832Z,0.77
2022-09-28T09:01:06.664Z,1.33
2022-09-28T09:03:16.693Z,0.93
2022-09-28T09:05:36.022Z,0.93
2022-09-28T09:07:59.647Z,0.93
2022-09-28T09:10:14.883Z,0.80
2022-09-28T09:12:30.511Z,0.70
2022-09-28T09:14:59.911Z,1.20
2022-09-28T09:17:14.128Z,0.80
2022-09-28T09:19:49.298Z,0.90
2022-09-28T09:22:05.179Z,0.90
2022-09-28T09:24:25.080Z,1.10
2022-09-28T09:26:39.320Z,1.10
2022-09-28T09:29:12.332Z,0.90
2022-09-28T09:31:35.471Z,1.00
2022-09-28T09:34:04.518Z,1.00
2022-09-28T09:36:47.363Z,1.13
2022-09-28T09:39:28.040Z,1.00
2022-09-28T09:42:07.311Z,0.80
2022-09-28T09:44:58.704Z,0.80
2022-09-28T09:47:28.775Z,0.60
2022-09-28T09:49:39.332Z,0.70
2022-09-28T09:51:48.714Z,0.70
2022-09-28T09:54:00.157Z,0.75
2022-09-28T09:56:17.169Z,0.68
2022-09-28T09:58:39.482Z,1.10
2022-09-28T10:01:00.116Z,0.82
2022-09-28T10:03:29.563Z,0.65
2022-09-28T10:05:50.890Z,0.75
2022-09-28T10:08:04.072Z,0.50
2022-09-28T10:10:15.173Z,0.50
2022-09-28T10:12:29.248Z,0.80
2022-09-28T10:14:34.039Z,0.50
2022-09-28T10:16:48.159Z,0.95
2022-09-28T10:19:02.426Z,0.60
2022-09-28T10:21:26.948Z,0.98
2022-09-28T10:26:04.920Z,0.80
2022-09-28T10:28:18.912Z,0.70
2022-09-28T10:30:25.739Z,0.90
2022-09-28T10:32:40.354Z,0.80
2022-09-28T10:34:50.176Z,1.10
2022-09-28T10:37:00.694Z,0.70
2022-09-28T10:39:27.341Z,1.00
2022-09-28T10:41:34.114Z,1.10
2022-09-28T10:44:06.443Z,1.00
2022-09-28T10:46:37.202Z,0.85
2022-09-28T10:48:55.153Z,1.00
2022-09-28T10:51:08.883Z,0.43
2022-09-28T10:53:20.015Z,0.73
2022-09-28T10:55:43.288Z,1.00
2022-09-28T10:57:48.315Z,0.80
2022-09-28T10:59:56.364Z,0.88
2022-09-28T11:02:04.591Z,1.30
2022-09-28T11:04:10.581Z,1.10
2022-09-28T11:06:18.769Z,1.00
2022-09-28T11:08:29.504Z,0.90
2022-09-28T11:10:37.498Z,0.80
2022-09-28T11:12:52.942Z,1.10
2022-09-28T11:15:04.758Z,0.85
2022-09-28T11:17:30.066Z,0.60
2022-09-28T11:19:35.768Z,0.93
2022-09-28T11:21:47.151Z,0.70
2022-09-28T11:24:05.996Z,0.82
2022-09-28T11:26:18.331Z,0.60
2022-09-28T11:28:29.890Z,0.85
2022-09-28T11:30:42.527Z,0.63
2022-09-28T11:33:06.504Z,0.70
2022-09-28T11:35:47.025Z,0.85
2022-09-28T11:38:13.127Z,1.05
2022-09-28T11:40:54.402Z,0.70
2022-09-28T11:43:12.322Z,0.73
2022-09-28T11:45:33.336Z,1.08
2022-09-28T11:47:50.574Z,0.80
2022-09-28T11:50:02.872Z,0.88
2022-09-28T11:52:25.610Z,0.88
2022-09-28T11:54:35.256Z,2.10
2022-09-28T11:56:44.450Z,1.00
2022-09-28T11:58:53.704Z,0.65
2022-09-28T12:01:10.341Z,1.08
2022-09-28T12:03:45.224Z,1.05
2022-09-28T12:05:54.791Z,0.90
2022-09-28T12:08:02.904Z,0.80
2022-09-28T12:10:45.570Z,0.85
2022-09-28T12:12:57.136Z,0.85
2022-09-28T12:15:08.055Z,0.63
2022-09-28T12:17:20.921Z,0.90
2022-09-28T12:19:33.613Z,0.80
2022-09-28T12:21:43.566Z,0.88
2022-09-28T12:23:51.549Z,0.88
2022-09-28T12:26:00.297Z,0.75
2022-09-28T12:28:10.180Z,0.73
2022-09-28T12:30:19.380Z,0.90
2022-09-28T12:32:32.366Z,0.80
2022-09-28T12:34:39.826Z,0.73
2022-09-28T12:36:54.447Z,0.75
2022-09-28T12:39:35.727Z,0.63
2022-09-28T12:41:50.224Z,0.60
2022-09-28T12:44:06.704Z,0.80
2022-09-28T12:46:28.319Z,0.50
2022-09-28T12:51:47.788Z,0.80
2022-09-28T12:54:04.657Z,1.00
2022-09-28T12:56:21.602Z,0.70
2022-09-28T12:58:49.383Z,0.68
2022-09-28T13:01:04.379Z,1.00
2022-09-28T13:03:47.676Z,0.90
2022-09-28T13:06:17.877Z,0.80
2022-09-28T13:08:34.486Z,0.80
2022-09-28T13:10:44.474Z,1.10
2022-09-28T13:13:05.281Z,1.27
2022-09-28T13:15:29.261Z,0.90
2022-09-28T13:17:45.949Z,0.80
2022-09-28T13:19:54.289Z,0.80
2022-09-28T13:22:09.655Z,0.65
2022-09-28T13:24:33.505Z,0.88
2022-09-28T13:26:44.184Z,0.80
2022-09-28T13:28:52.149Z,0.70
2022-09-28T13:33:08.767Z,0.60
2022-09-28T13:35:19.504Z,0.70
2022-09-28T13:37:26.949Z,0.55
2022-09-28T13:39:52.258Z,0.70
2022-09-28T13:42:00.144Z,0.70
2022-09-28T13:44:32.473Z,0.85
2022-09-28T13:46:43.714Z,0.82
2022-09-28T13:49:00.170Z,0.90
2022-09-28T13:51:14.638Z,0.90
2022-09-28T13:53:27.852Z,0.60
2022-09-28T13:55:44.441Z,0.80
2022-09-28T13:57:56.003Z,0.95
2022-09-28T14:00:10.511Z,0.98
2022-09-28T14:02:30.720Z,0.70
2022-09-28T14:04:57.730Z,0.90
2022-09-28T14:07:13.818Z,0.80
2022-09-28T14:09:44.542Z,1.00
2022-09-28T14:12:01.491Z,0.80
2022-09-28T14:14:26.078Z,0.88
2022-09-28T14:16:33.345Z,1.10
2022-09-28T14:18:39.670Z,0.70
2022-09-28T14:20:56.162Z,1.02
2022-09-28T14:23:28.134Z,1.00
2022-09-28T14:25:36.110Z,0.63
2022-09-28T14:28:03.077Z,0.90
2022-09-28T14:30:22.882Z,1.00
2022-09-28T14:32:36.227Z,0.90
2022-09-28T14:34:44.169Z,1.13
2022-09-28T14:37:04.446Z,1.20
2022-09-28T14:39:37.664Z,0.80
2022-09-28T14:41:45.892Z,0.75
2022-09-28T14:44:05.395Z,0.80
2022-09-28T14:46:38.292Z,0.90
2022-09-28T14:48:49.656Z,0.75
2022-09-28T14:50:55.842Z,0.80
2022-09-28T14:53:07.381Z,0.82
2022-09-28T14:55:18.310Z,0.90
2022-09-28T14:57:27.031Z,1.27
2022-09-28T14:59:36.612Z,1.00
2022-09-28T15:01:42.314Z,0.75
2022-09-28T15:03:51.111Z,0.70
2022-09-28T15:05:55.975Z,0.60
2022-09-28T15:08:01.934Z,0.98
2022-09-28T15:10:27.659Z,0.82
2022-09-28T15:12:33.891Z,0.90
2022-09-28T15:14:54.031Z,0.90
2022-09-28T15:17:03.487Z,1.20
2022-09-28T15:19:26.379Z,1.05
2022-09-28T15:21:39.838Z,0.80
2022-09-28T15:23:48.055Z,0.90
2022-09-28T15:25:55.146Z,1.00
2022-09-28T15:28:03.519Z,0.93
2022-09-28T15:30:25.474Z,0.90
2022-09-28T15:32:32.336Z,1.20
2022-09-28T15:34:51.313Z,1.02
2022-09-28T15:36:56.465Z,1.05
2022-09-28T15:39:08.806Z,1.92
2022-09-28T15:41:13.819Z,1.00
2022-09-28T15:43:29.185Z,1.02
2022-09-28T15:45:44.673Z,1.38
2022-09-28T15:47:49.434Z,2.35
2022-09-28T15:50:00.038Z,1.77
2022-09-28T15:52:05.063Z,1.17
2022-09-28T15:54:19.770Z,1.40
2022-09-28T15:56:25.051Z,1.10
2022-09-28T15:58:29.909Z,0.90
2022-09-28T16:00:35.352Z,1.60
2022-09-28T16:03:01.486Z,1.10
2022-09-28T16:05:07.164Z,1.10
2022-09-28T16:07:27.924Z,1.10
2022-09-28T16:09:40.907Z,0.90
2022-09-28T16:11:49.895Z,1.00
2022-09-28T16:14:01.854Z,1.10
2022-09-28T16:16:06.731Z,1.10
2022-09-28T16:18:23.682Z,1.05
2022-09-28T16:20:32.228Z,0.90
2022-09-28T16:22:37.013Z,1.35
2022-09-28T16:24:42.087Z,0.90
2022-09-28T16:26:46.978Z,0.90
2022-09-28T16:28:53.773Z,1.10
2022-09-28T16:31:07.598Z,1.00
2022-09-28T16:33:40.693Z,1.27
2022-09-28T16:35:53.518Z,1.55
2022-09-28T16:38:04.056Z,1.75
2022-09-28T16:40:10.316Z,1.67
2022-09-28T16:42:15.763Z,1.50
2022-09-28T16:44:26.267Z,1.80
2022-09-28T16:46:37.503Z,4.15
2022-09-28T16:48:48.915Z,4.95
2022-09-28T16:50:55.273Z,4.93
2022-09-28T16:53:17.063Z,4.60
2022-09-28T16:55:39.590Z,4.93
2022-09-28T16:57:45.433Z,3.88
2022-09-28T16:59:50.189Z,3.38
2022-09-28T17:01:56.667Z,4.78
2022-09-28T17:04:04.784Z,5.63
2022-09-28T17:06:13.970Z,4.93
2022-09-28T17:08:20.265Z,5.05
2022-09-28T17:10:31.928Z,6.43
2022-09-28T17:12:37.751Z,6.32
2022-09-28T17:14:43.031Z,8.15
2022-09-28T17:19:23.805Z,5.85
2022-09-28T17:21:29.335Z,6.70
2022-09-28T17:23:34.477Z,6.35
2022-09-28T17:25:40.534Z,5.88
2022-09-28T17:27:48.146Z,5.00
2022-09-28T17:29:52.941Z,4.50
2022-09-28T17:31:57.711Z,4.97
2022-09-28T17:34:02.594Z,5.57
2022-09-28T17:36:15.869Z,4.03
2022-09-28T17:38:20.636Z,2.45
2022-09-28T17:40:28.486Z,2.10
2022-09-28T17:42:33.533Z,2.63
2022-09-28T17:44:38.510Z,2.72
2022-09-28T17:46:48.740Z,2.40
2022-09-28T17:48:53.805Z,2.80
2022-09-28T17:50:59.935Z,2.60
2022-09-28T17:53:07.955Z,2.28
2022-09-28T17:55:12.922Z,2.60
2022-09-28T17:57:17.724Z,2.47
2022-09-28T17:59:22.491Z,2.53
2022-09-28T18:01:30.235Z,2.42
2022-09-28T18:03:35.157Z,2.92
2022-09-28T18:05:40.441Z,2.85
2022-09-28T18:07:47.804Z,3.42
2022-09-28T18:09:58.626Z,2.90
2022-09-28T18:12:07.329Z,2.88
2022-09-28T18:14:12.442Z,3.17
2022-09-28T18:16:19.716Z,4.07
2022-09-28T18:18:25.067Z,4.50
2022-09-28T18:20:29.995Z,4.45
2022-09-28T18:22:34.809Z,5.03
2022-09-28T18:24:39.910Z,3.40
2022-09-28T18:26:47.278Z,2.88
2022-09-28T18:28:56.274Z,2.63
2022-09-28T18:31:01.128Z,3.42
2022-09-28T18:33:06.366Z,2.88
2022-09-28T18:35:13.034Z,2.97
2022-09-28T18:37:17.918Z,3.33
2022-09-28T18:39:23.891Z,3.70
2022-09-28T18:41:29.427Z,4.90
2022-09-28T18:43:37.227Z,4.68
2022-09-28T18:45:42.341Z,5.97
2022-09-28T18:47:47.782Z,5.10
2022-09-28T18:49:53.071Z,4.72
2022-09-28T18:54:07.202Z,3.63
2022-09-28T18:56:14.600Z,3.88
2022-09-28T18:58:19.333Z,3.53
2022-09-28T19:00:26.729Z,3.38
2022-09-28T19:02:32.096Z,3.03
2022-09-28T19:04:37.064Z,3.28
2022-09-28T19:06:44.559Z,4.32
2022-09-28T19:08:55.603Z,4.32
2022-09-28T19:11:09.480Z,5.05
2022-09-28T19:13:14.280Z,5.57
2022-09-28T19:15:19.589Z,5.07
2022-09-28T19:17:27.014Z,5.65
2022-09-28T19:19:31.912Z,4.35
2022-09-28T19:21:36.791Z,3.83
2022-09-28T19:23:44.816Z,4.03
2022-09-28T19:25:53.041Z,3.50
2022-09-28T19:27:58.186Z,3.42
2022-09-28T19:30:03.395Z,2.88
2022-09-28T19:32:08.253Z,3.63
2022-09-28T19:34:16.286Z,3.33
2022-09-28T19:36:23.797Z,2.90
2022-09-28T19:38:31.090Z,3.05
2022-09-28T19:40:39.755Z,3.70
2022-09-28T19:42:44.637Z,3.03
2022-09-28T19:44:49.948Z,3.75
2022-09-28T19:46:56.138Z,3.35
2022-09-28T19:49:03.280Z,3.55
2022-09-28T19:51:11.032Z,2.92
2022-09-28T19:53:16.010Z,3.30
2022-09-28T19:55:21.275Z,3.20
2022-09-28T19:59:31.027Z,3.60
2022-09-28T20:01:36.130Z,3.30
2022-09-28T20:03:40.932Z,4.18
2022-09-28T20:05:45.844Z,4.07
2022-09-28T20:07:53.429Z,3.70
2022-09-28T20:09:58.335Z,2.80
2022-09-28T20:12:03.602Z,2.83
2022-09-28T20:16:16.749Z,2.42
2022-09-28T20:18:21.829Z,2.70
2022-09-28T20:20:27.016Z,2.22
2022-09-28T20:22:32.067Z,2.38
2022-09-28T20:24:39.484Z,2.35
2022-09-28T20:26:44.469Z,2.13
2022-09-28T20:28:49.647Z,2.80
2022-09-28T20:30:54.936Z,2.85
2022-09-28T20:35:04.934Z,3.13
2022-09-28T20:37:09.888Z,3.35
2022-09-28T20:39:15.194Z,4.05
2022-09-28T20:41:24.758Z,3.40
2022-09-28T20:43:31.289Z,3.50
2022-09-28T20:45:38.439Z,2.80
2022-09-28T20:47:43.271Z,2.97
2022-09-28T20:49:48.183Z,3.15
2022-09-28T20:51:52.907Z,2.67
2022-09-28T20:53:59.299Z,3.08
2022-09-28T20:56:05.915Z,2.90
2022-09-28T20:58:13.248Z,2.75
2022-09-28T21:00:18.549Z,4.15
2022-09-28T21:04:28.082Z,3.58
2022-09-28T21:06:35.002Z,3.83
2022-09-28T21:08:39.757Z,3.58
2022-09-28T21:10:47.175Z,3.17
2022-09-28T21:12:53.306Z,3.38
2022-09-28T21:15:05.540Z,3.45
2022-09-28T21:17:10.735Z,3.28
2022-09-28T21:19:15.527Z,2.92
2022-09-28T21:21:21.725Z,3.53
2022-09-28T21:23:26.735Z,3.58
2022-09-28T21:25:31.504Z,4.15
2022-09-28T21:27:36.895Z,3.75
2022-09-28T21:29:41.718Z,3.20
2022-09-28T21:31:50.013Z,3.00
2022-09-28T21:33:54.742Z,2.97
2022-09-28T21:36:03.320Z,2.88
2022-09-28T21:38:08.363Z,3.03
2022-09-28T21:40:13.505Z,2.97
2022-09-28T21:42:18.329Z,2.75
2022-09-28T21:44:23.088Z,2.53
2022-09-28T21:46:33.721Z,2.92
2022-09-28T21:48:41.259Z,2.70
2022-09-28T21:50:46.012Z,2.55
2022-09-28T21:52:51.180Z,3.28
2022-09-28T21:54:55.921Z,3.03
2022-09-28T21:57:01.230Z,3.35
2022-09-28T22:01:14.662Z,3.15
2022-09-28T22:03:19.672Z,3.35
2022-09-28T22:05:28.191Z,3.05
2022-09-28T22:07:32.950Z,3.33
2022-09-28T22:09:37.665Z,3.67
2022-09-28T22:11:42.403Z,3.88
2022-09-28T22:13:48.799Z,3.08
2022-09-28T22:15:55.650Z,3.28
2022-09-28T22:18:01.020Z,3.58
2022-09-28T22:22:12.939Z,3.47
2022-09-28T22:24:17.791Z,3.55
2022-09-28T22:26:23.974Z,3.38
2022-09-28T22:28:28.749Z,3.88
2022-09-28T22:30:33.655Z,3.72
2022-09-28T22:32:38.476Z,3.58
2022-09-28T22:34:43.264Z,4.13
2022-09-28T22:36:48.445Z,3.70
2022-09-28T22:38:57.462Z,4.07
2022-09-28T22:41:03.853Z,3.92
2022-09-28T22:43:08.845Z,3.83
2022-09-28T22:45:13.674Z,4.03
2022-09-28T22:47:18.414Z,3.97
2022-09-28T22:49:23.800Z,3.97
2022-09-28T22:51:30.213Z,3.88
2022-09-28T22:53:35.749Z,4.90
2022-09-28T22:55:43.950Z,4.30
2022-09-28T22:57:48.664Z,4.30
2022-09-28T22:59:53.468Z,4.70
2022-09-28T23:01:58.539Z,4.10
2022-09-28T23:04:03.706Z,4.88
2022-09-28T23:06:09.409Z,4.05
2022-09-28T23:08:14.142Z,4.50
2022-09-28T23:10:18.939Z,4.78
2022-09-28T23:12:26.494Z,5.00
2022-09-28T23:14:31.350Z,4.65
2022-09-28T23:16:36.096Z,4.82
2022-09-28T23:18:43.750Z,5.28
2022-09-28T23:20:55.693Z,5.28
2022-09-28T23:23:00.413Z,5.20
2022-09-28T23:25:05.171Z,5.72
2022-09-28T23:27:09.958Z,5.60
2022-09-28T23:29:17.343Z,4.78
2022-09-28T23:31:24.486Z,5.32
2022-09-28T23:33:29.363Z,5.47
2022-09-28T23:35:35.867Z,5.13
2022-09-28T23:37:40.888Z,5.53
2022-09-28T23:39:46.271Z,5.60
2022-09-28T23:41:51.408Z,4.82
2022-09-28T23:43:56.133Z,5.07
2022-09-28T23:46:03.577Z,5.30
2022-09-28T23:48:08.654Z,4.85
2022-09-28T23:50:13.406Z,5.35
2022-09-28T23:52:18.171Z,4.90
2022-09-28T23:54:22.904Z,4.95
2022-09-28T23:56:27.586Z,4.70
2022-09-28T23:58:32.386Z,4.70
